Time,TemperatureF,DewpointF,PressureIn,WindDirection,WindDirectionDegrees,WindSpeedMPH,WindSpeedGustMPH,Humidity,HourlyPrecipIn,Conditions,Clouds,dailyrainin,SoftwareType,DateUTC
2013-08-13 00:01:00,63.5,62.6,29.40,West,265,0.0,0.0,97,0.00,,,0.00,WeatherCatV1.02B3,2013-08-13 04:01:00,
2013-08-13 00:06:00,63.4,62.5,29.40,West,266,0.0,0.0,97,0.00,,,0.00,WeatherCatV1.02B3,2013-08-13 04:06:00,
2013-08-13 00:11:00,63.3,62.4,29.40,West,265,0.0,0.0,97,0.00,,,0.00,WeatherCatV1.02B3,2013-08-13 04:11:00,
2013-08-13 00:16:00,63.2,62.3,29.41,West,265,0.0,0.0,97,0.00,,,0.00,WeatherCatV1.02B3,2013-08-13 04:16:00,
2013-08-13 00:21:00,63.4,62.5,29.41,West,266,0.0,0.0,97,0.00,,,0.00,WeatherCatV1.02B3,2013-08-13 04:21:00,
2013-08-13 00:26:00,63.4,62.5,29.40,West,266,0.0,0.0,97,0.00,,,0.00,WeatherCatV1.02B3,2013-08-13 04:26:00,
2013-08-13 00:31:00,63.9,63.3,29.41,West,266,0.0,0.0,98,0.00,,,0.00,WeatherCatV1.02B3,2013-08-13 04:31:00,
2013-08-13 00:36:00,63.8,63.2,29.41,West,266,0.0,0.0,98,0.00,,,0.00,WeatherCatV1.02B3,2013-08-13 04:36:00,
2013-08-13 00:41:00,63.5,62.6,29.41,West,266,0.0,0.0,97,0.00,,,0.00,WeatherCatV1.02B3,2013-08-13 04:41:00,
2013-08-13 00:46:00,63.5,62.6,29.41,West,266,0.0,0.0,97,0.00,,,0.00,WeatherCatV1.02B3,2013-08-13 04:46:00,
2013-08-13 00:51:00,63.4,62.5,29.42,West,266,0.0,0.0,97,0.00,,,0.00,WeatherCatV1.02B3,2013-08-13 04:51:00,
2013-08-13 00:56:00,63.5,62.6,29.42,West,266,0.0,0.0,97,0.00,,,0.00,WeatherCatV1.02B3,2013-08-13 04:56:00,
2013-08-13 01:01:00,63.7,62.8,29.42,West,266,0.0,0.0,97,0.00,,,0.00,WeatherCatV1.02B3,2013-08-13 05:01:00,
2013-08-13 01:06:00,64.6,64.0,29.42,WNW,295,0.0,0.0,98,0.00,,,0.00,WeatherCatV1.02B3,2013-08-13 05:06:00,
2013-08-13 01:11:00,65.3,64.7,29.42,WNW,295,0.0,0.0,98,0.00,,,0.00,WeatherCatV1.02B3,2013-08-13 05:11:00,
2013-08-13 01:16:00,65.5,64.9,29.42,WNW,295,0.0,0.0,98,0.00,,,0.00,WeatherCatV1.02B3,2013-08-13 05:16:00,
2013-08-13 01:21:00,65.6,65.0,29.42,WNW,295,0.0,0.0,98,0.00,,,0.00,WeatherCatV1.02B3,2013-08-13 05:21:00,
2013-08-13 01:26:00,65.3,64.7,29.42,WNW,295,0.0,0.0,98,0.00,,,0.00,WeatherCatV1.02B3,2013-08-13 05:26:00,
2013-08-13 01:31:00,65.4,64.8,29.42,WNW,295,0.0,0.0,98,0.00,,,0.00,WeatherCatV1.02B3,2013-08-13 05:31:00,
2013-08-13 01:36:00,65.4,64.8,29.42,WNW,295,0.0,0.0,98,0.00,,,0.00,WeatherCatV1.02B3,2013-08-13 05:36:00,
2013-08-13 01:41:00,65.4,64.8,29.42,WNW,295,0.0,1.0,98,0.00,,,0.00,WeatherCatV1.02B3,2013-08-13 05:41:00,
2013-08-13 01:46:00,65.6,65.0,29.42,WNW,294,0.0,0.0,98,0.00,,,0.00,WeatherCatV1.02B3,2013-08-13 05:46:00,
2013-08-13 01:51:00,65.5,64.9,29.42,WNW,295,0.0,0.0,98,0.00,,,0.00,WeatherCatV1.02B3,2013-08-13 05:51:00,
2013-08-13 01:56:00,65.4,64.8,29.42,WNW,295,0.0,0.0,98,0.00,,,0.00,WeatherCatV1.02B3,2013-08-13 05:56:00,
2013-08-13 02:01:00,65.3,64.4,29.42,East,83,0.0,0.0,97,0.00,,,0.00,WeatherCatV1.02B3,2013-08-13 06:01:00,
2013-08-13 02:06:00,65.1,64.2,29.42,East,83,0.0,0.0,97,0.00,,,0.00,WeatherCatV1.02B3,2013-08-13 06:06:00,
2013-08-13 02:11:00,64.9,64.0,29.42,East,83,0.0,0.0,97,0.00,,,0.00,WeatherCatV1.02B3,2013-08-13 06:11:00,
2013-08-13 02:16:00,64.8,63.9,29.42,East,83,0.0,0.0,97,0.00,,,0.00,WeatherCatV1.02B3,2013-08-13 06:16:00,
2013-08-13 02:21:00,64.5,63.6,29.42,East,84,0.0,0.0,97,0.00,,,0.00,WeatherCatV1.02B3,2013-08-13 06:21:00,
2013-08-13 02:26:00,64.2,63.3,29.42,East,83,0.0,0.0,97,0.00,,,0.00,WeatherCatV1.02B3,2013-08-13 06:26:00,
2013-08-13 02:31:00,64.0,63.1,29.42,East,83,0.0,0.0,97,0.00,,,0.00,WeatherCatV1.02B3,2013-08-13 06:31:00,
2013-08-13 02:36:00,64.1,63.2,29.41,SE,139,0.0,0.0,97,0.00,,,0.00,WeatherCatV1.02B3,2013-08-13 06:36:00,
2013-08-13 02:41:00,64.1,63.2,29.41,SE,136,0.0,0.0,97,0.00,,,0.00,WeatherCatV1.02B3,2013-08-13 06:41:00,
2013-08-13 02:46:00,64.1,63.2,29.41,ESE,121,0.0,1.0,97,0.00,,,0.00,WeatherCatV1.02B3,2013-08-13 06:46:00,
2013-08-13 02:51:00,64.1,63.2,29.41,ENE,67,3.0,3.0,97,0.00,,,0.00,WeatherCatV1.02B3,2013-08-13 06:51:00,
2013-08-13 02:56:00,64.0,63.1,29.41,North,1,0.0,2.0,97,0.00,,,0.00,WeatherCatV1.02B3,2013-08-13 06:56:00,
2013-08-13 03:01:00,63.9,63.0,29.41,NW,312,0.0,3.0,97,0.00,,,0.00,WeatherCatV1.02B3,2013-08-13 07:01:00,
2013-08-13 03:06:00,63.8,62.9,29.41,ESE,117,0.0,0.0,97,0.00,,,0.00,WeatherCatV1.02B3,2013-08-13 07:06:00,
2013-08-13 03:11:00,63.7,62.8,29.41,NNE,31,0.0,0.0,97,0.00,,,0.00,WeatherCatV1.02B3,2013-08-13 07:11:00,
2013-08-13 03:16:00,63.5,62.3,29.41,SSW,201,0.0,2.0,96,0.00,,,0.00,WeatherCatV1.02B3,2013-08-13 07:16:00,
2013-08-13 03:21:00,63.4,62.2,29.41,SE,133,0.0,3.0,96,0.00,,,0.00,WeatherCatV1.02B3,2013-08-13 07:21:00,
2013-08-13 03:26:00,63.4,62.2,29.41,ESE,105,1.0,2.0,96,0.00,,,0.00,WeatherCatV1.02B3,2013-08-13 07:26:00,
2013-08-13 03:31:00,63.4,62.2,29.41,East,85,1.0,2.0,96,0.00,,,0.00,WeatherCatV1.02B3,2013-08-13 07:31:00,
2013-08-13 03:36:00,63.4,62.2,29.41,NE,51,2.0,3.0,96,0.00,,,0.00,WeatherCatV1.02B3,2013-08-13 07:36:00,
2013-08-13 03:41:00,63.5,62.3,29.41,NNE,27,0.0,1.0,96,0.00,,,0.00,WeatherCatV1.02B3,2013-08-13 07:41:00,
2013-08-13 03:46:00,63.5,62.0,29.41,ENE,77,0.0,1.0,95,0.00,,,0.00,WeatherCatV1.02B3,2013-08-13 07:46:00,
2013-08-13 03:51:00,63.5,62.3,29.41,WNW,293,2.0,3.0,96,0.00,,,0.00,WeatherCatV1.02B3,2013-08-13 07:51:00,
2013-08-13 03:56:00,63.6,62.1,29.41,NW,313,0.0,1.0,95,0.00,,,0.00,WeatherCatV1.02B3,2013-08-13 07:56:00,
2013-08-13 04:01:00,63.6,62.1,29.41,NW,323,0.0,2.0,95,0.00,,,0.00,WeatherCatV1.02B3,2013-08-13 08:01:00,
2013-08-13 04:06:00,63.5,61.7,29.42,ENE,78,0.0,1.0,94,0.00,,,0.00,WeatherCatV1.02B3,2013-08-13 08:06:00,
2013-08-13 04:11:00,63.4,61.6,29.42,NW,304,1.0,2.0,94,0.00,,,0.00,WeatherCatV1.02B3,2013-08-13 08:11:00,
2013-08-13 04:16:00,63.4,61.6,29.42,NE,44,0.0,4.0,94,0.00,,,0.00,WeatherCatV1.02B3,2013-08-13 08:16:00,
2013-08-13 04:21:00,63.3,61.2,29.42,SSW,211,0.0,2.0,93,0.00,,,0.00,WeatherCatV1.02B3,2013-08-13 08:21:00,
2013-08-13 04:26:00,63.2,61.1,29.42,NE,49,0.0,4.0,93,0.00,,,0.00,WeatherCatV1.02B3,2013-08-13 08:26:00,
2013-08-13 04:31:00,63.0,60.9,29.42,ESE,103,0.0,1.0,93,0.00,,,0.00,WeatherCatV1.02B3,2013-08-13 08:31:00,
2013-08-13 04:36:00,63.0,60.6,29.42,NNE,31,0.0,3.0,92,0.00,,,0.00,WeatherCatV1.02B3,2013-08-13 08:36:00,
2013-08-13 04:41:00,63.0,60.6,29.43,East,81,1.0,2.0,92,0.00,,,0.00,WeatherCatV1.02B3,2013-08-13 08:41:00,
2013-08-13 04:46:00,63.0,60.6,29.43,WSW,257,0.0,3.0,92,0.00,,,0.00,WeatherCatV1.02B3,2013-08-13 08:46:00,
2013-08-13 04:51:00,63.0,60.6,29.43,NW,313,0.0,4.0,92,0.00,,,0.00,WeatherCatV1.02B3,2013-08-13 08:51:00,
2013-08-13 04:56:00,63.0,60.0,29.43,NW,315,2.0,3.0,90,0.00,,,0.00,WeatherCatV1.02B3,2013-08-13 08:56:00,
2013-08-13 05:01:00,62.9,59.6,29.43,NE,36,0.0,4.0,89,0.00,,,0.00,WeatherCatV1.02B3,2013-08-13 09:01:00,
2013-08-13 05:06:00,62.7,59.4,29.44,NW,312,0.0,1.0,89,0.00,,,0.00,WeatherCatV1.02B3,2013-08-13 09:06:00,
2013-08-13 05:11:00,62.6,59.3,29.44,North,11,0.0,1.0,89,0.00,,,0.00,WeatherCatV1.02B3,2013-08-13 09:11:00,
2013-08-13 05:16:00,62.6,59.6,29.44,ENE,70,2.0,5.0,90,0.00,,,0.00,WeatherCatV1.02B3,2013-08-13 09:16:00,
2013-08-13 05:21:00,62.6,59.6,29.44,ENE,69,1.0,4.0,90,0.00,,,0.00,WeatherCatV1.02B3,2013-08-13 09:21:00,
2013-08-13 05:26:00,62.6,59.3,29.44,SW,218,1.0,3.0,89,0.00,,,0.00,WeatherCatV1.02B3,2013-08-13 09:26:00,
2013-08-13 05:31:00,62.4,58.8,29.45,NE,37,1.0,2.0,88,0.00,,,0.00,WeatherCatV1.02B3,2013-08-13 09:31:00,
2013-08-13 05:36:00,62.4,58.5,29.45,NNW,335,3.0,5.0,87,0.00,,,0.00,WeatherCatV1.02B3,2013-08-13 09:36:00,
2013-08-13 05:41:00,62.3,58.4,29.45,East,88,0.0,1.0,87,0.00,,,0.00,WeatherCatV1.02B3,2013-08-13 09:41:00,
2013-08-13 05:46:00,62.0,57.8,29.45,ENE,57,2.0,3.0,86,0.00,,,0.00,WeatherCatV1.02B3,2013-08-13 09:46:00,
2013-08-13 05:50:00,61.8,57.6,29.45,East,87,1.0,2.0,86,0.00,,,0.00,WeatherCatV1.02B3,2013-08-13 09:50:00,
2013-08-13 05:55:00,61.6,57.4,29.45,NNE,22,1.0,2.0,86,0.00,,,0.00,WeatherCatV1.02B3,2013-08-13 09:55:00,
2013-08-13 06:00:00,61.3,56.7,29.45,West,274,0.0,2.0,85,0.00,,,0.00,WeatherCatV1.02B3,2013-08-13 10:00:00,
2013-08-13 06:05:00,61.1,56.6,29.45,NNE,12,3.0,8.0,85,0.00,,,0.00,WeatherCatV1.02B3,2013-08-13 10:05:00,
2013-08-13 06:10:00,61.1,56.6,29.45,NNE,23,4.0,4.0,85,0.00,,,0.00,WeatherCatV1.02B3,2013-08-13 10:10:00,
2013-08-13 06:15:00,60.9,56.4,29.45,SSW,193,0.0,1.0,85,0.00,,,0.00,WeatherCatV1.02B3,2013-08-13 10:15:00,
2013-08-13 06:20:00,60.7,56.5,29.45,NNE,30,1.0,3.0,86,0.00,,,0.00,WeatherCatV1.02B3,2013-08-13 10:20:00,
2013-08-13 06:25:00,60.6,56.4,29.45,WNW,303,3.0,6.0,86,0.00,,,0.00,WeatherCatV1.02B3,2013-08-13 10:25:00,
2013-08-13 06:30:00,60.6,56.7,29.46,ESE,117,2.0,6.0,87,0.00,,,0.00,WeatherCatV1.02B3,2013-08-13 10:30:00,
2013-08-13 06:35:00,60.5,56.3,29.46,NW,326,0.0,4.0,86,0.00,,,0.00,WeatherCatV1.02B3,2013-08-13 10:35:00,
2013-08-13 06:40:00,60.4,56.5,29.46,ENE,73,0.0,2.0,87,0.00,,,0.00,WeatherCatV1.02B3,2013-08-13 10:40:00,
2013-08-13 06:45:00,60.2,56.3,29.46,SW,227,1.0,3.0,87,0.00,,,0.00,WeatherCatV1.02B3,2013-08-13 10:45:00,
2013-08-13 06:50:00,60.1,56.2,29.46,NNW,330,0.0,5.0,87,0.00,,,0.00,WeatherCatV1.02B3,2013-08-13 10:50:00,
2013-08-13 06:55:00,60.2,56.3,29.47,East,93,0.0,1.0,87,0.00,,,0.00,WeatherCatV1.02B3,2013-08-13 10:55:00,
2013-08-13 07:00:00,60.1,56.2,29.47,East,80,1.0,5.0,87,0.00,,,0.00,WeatherCatV1.02B3,2013-08-13 11:00:00,
2013-08-13 07:05:00,60.1,55.9,29.47,NNE,16,2.0,4.0,86,0.00,,,0.00,WeatherCatV1.02B3,2013-08-13 11:05:00,
2013-08-13 07:10:00,60.2,56.0,29.47,East,96,0.0,4.0,86,0.00,,,0.00,WeatherCatV1.02B3,2013-08-13 11:10:00,
2013-08-13 07:15:00,60.3,56.1,29.48,SSE,164,1.0,5.0,86,0.00,,,0.00,WeatherCatV1.02B3,2013-08-13 11:15:00,
2013-08-13 07:20:00,60.3,56.1,29.48,East,94,3.0,4.0,86,0.00,,,0.00,WeatherCatV1.02B3,2013-08-13 11:20:00,
2013-08-13 07:25:00,60.4,56.2,29.48,ENE,74,2.0,5.0,86,0.00,,,0.00,WeatherCatV1.02B3,2013-08-13 11:25:00,
2013-08-13 07:30:00,60.5,56.3,29.49,North,351,2.0,3.0,86,0.00,,,0.00,WeatherCatV1.02B3,2013-08-13 11:30:00,
2013-08-13 07:35:00,60.5,56.3,29.49,ESE,110,3.0,6.0,86,0.00,,,0.00,WeatherCatV1.02B3,2013-08-13 11:35:00,
2013-08-13 07:40:00,60.5,56.3,29.49,NE,53,0.0,4.0,86,0.00,,,0.00,WeatherCatV1.02B3,2013-08-13 11:40:00,
2013-08-13 07:45:00,60.4,55.9,29.49,North,4,3.0,4.0,85,0.00,,,0.00,WeatherCatV1.02B3,2013-08-13 11:45:00,
2013-08-13 07:50:00,60.4,56.2,29.50,ENE,68,1.0,3.0,86,0.00,,,0.00,WeatherCatV1.02B3,2013-08-13 11:50:00,
2013-08-13 07:55:00,60.4,55.9,29.50,ENE,71,1.0,2.0,85,0.00,,,0.00,WeatherCatV1.02B3,2013-08-13 11:55:00,
2013-08-13 08:00:00,60.3,55.8,29.51,East,82,0.0,7.0,85,0.00,,,0.00,WeatherCatV1.02B3,2013-08-13 12:00:00,
2013-08-13 08:05:00,60.2,56.0,29.51,SE,139,1.0,2.0,86,0.00,,,0.00,WeatherCatV1.02B3,2013-08-13 12:05:00,
2013-08-13 08:10:00,60.1,56.2,29.51,ENE,61,0.0,0.0,87,0.00,,,0.00,WeatherCatV1.02B3,2013-08-13 12:10:00,
2013-08-13 08:15:00,60.0,56.4,29.52,West,273,0.0,1.0,88,0.00,,,0.00,WeatherCatV1.02B3,2013-08-13 12:15:00,
2013-08-13 08:20:00,60.0,56.4,29.52,East,94,1.0,1.0,88,0.00,,,0.00,WeatherCatV1.02B3,2013-08-13 12:20:00,
2013-08-13 08:25:00,60.0,56.4,29.53,ENE,62,0.0,2.0,88,0.00,,,0.00,WeatherCatV1.02B3,2013-08-13 12:25:00,
2013-08-13 08:30:00,59.9,56.0,29.53,SE,132,0.0,1.0,87,0.00,,,0.00,WeatherCatV1.02B3,2013-08-13 12:30:00,
2013-08-13 08:35:00,59.7,55.8,29.53,ENE,62,0.0,1.0,87,0.00,,,0.00,WeatherCatV1.02B3,2013-08-13 12:35:00,
2013-08-13 08:40:00,59.5,55.6,29.53,ENE,68,2.0,3.0,87,0.00,,,0.00,WeatherCatV1.02B3,2013-08-13 12:40:00,
2013-08-13 08:45:00,59.5,55.3,29.53,East,84,0.0,4.0,86,0.00,,,0.00,WeatherCatV1.02B3,2013-08-13 12:45:00,
2013-08-13 08:50:00,59.5,55.6,29.53,East,84,0.0,2.0,87,0.00,,,0.00,WeatherCatV1.02B3,2013-08-13 12:50:00,
2013-08-13 08:55:00,59.6,54.8,29.52,ESE,116,0.0,1.0,84,0.00,,,0.00,WeatherCatV1.02B3,2013-08-13 12:55:00,
2013-08-13 09:00:00,60.1,55.2,29.53,ENE,61,1.0,2.0,84,0.00,,,0.00,WeatherCatV1.02B3,2013-08-13 13:00:00,
2013-08-13 09:05:00,60.8,55.3,29.53,East,87,1.0,3.0,82,0.00,,,0.00,WeatherCatV1.02B3,2013-08-13 13:05:00,
2013-08-13 09:10:00,61.4,55.5,29.53,ENE,64,4.0,6.0,81,0.00,,,0.00,WeatherCatV1.02B3,2013-08-13 13:10:00,
2013-08-13 09:15:00,61.6,56.0,29.53,ENE,58,0.0,1.0,82,0.00,,,0.00,WeatherCatV1.02B3,2013-08-13 13:15:00,
2013-08-13 09:20:00,61.8,55.9,29.53,ESE,123,0.0,2.0,81,0.00,,,0.00,WeatherCatV1.02B3,2013-08-13 13:20:00,
2013-08-13 09:25:00,62.2,55.9,29.53,ESE,120,1.0,4.0,80,0.00,,,0.00,WeatherCatV1.02B3,2013-08-13 13:25:00,
2013-08-13 09:30:00,62.4,55.8,29.53,East,96,2.0,4.0,79,0.00,,,0.00,WeatherCatV1.02B3,2013-08-13 13:30:00,
2013-08-13 09:35:00,62.7,56.1,29.53,ENE,69,4.0,4.0,79,0.00,,,0.00,WeatherCatV1.02B3,2013-08-13 13:35:00,
2013-08-13 09:40:00,62.5,55.5,29.52,NE,34,2.0,10.0,78,0.00,,,0.00,WeatherCatV1.02B3,2013-08-13 13:40:00,
2013-08-13 09:45:00,62.9,56.6,29.52,WNW,292,0.0,1.0,80,0.00,,,0.00,WeatherCatV1.02B3,2013-08-13 13:45:00,
2013-08-13 09:50:00,63.2,55.5,29.52,West,280,1.0,5.0,76,0.00,,,0.00,WeatherCatV1.02B3,2013-08-13 13:50:00,
2013-08-13 09:55:00,63.6,56.3,29.52,NE,53,3.0,6.0,77,0.00,,,0.00,WeatherCatV1.02B3,2013-08-13 13:55:00,
2013-08-13 10:00:00,64.1,56.4,29.52,NW,324,1.0,3.0,76,0.00,,,0.00,WeatherCatV1.02B3,2013-08-13 14:00:00,
2013-08-13 10:05:00,64.2,55.4,29.52,West,263,1.0,5.0,73,0.00,,,0.00,WeatherCatV1.02B3,2013-08-13 14:05:00,
2013-08-13 10:10:00,64.2,54.6,29.52,NE,36,3.0,7.0,71,0.00,,,0.00,WeatherCatV1.02B3,2013-08-13 14:10:00,
2013-08-13 10:15:00,64.0,54.0,29.53,ENE,78,6.0,6.0,70,0.00,,,0.00,WeatherCatV1.02B3,2013-08-13 14:15:00,
2013-08-13 10:20:00,63.8,54.6,29.53,ENE,70,1.0,9.0,72,0.00,,,0.00,WeatherCatV1.02B3,2013-08-13 14:20:00,
2013-08-13 10:25:00,64.3,54.3,29.53,NNW,338,5.0,8.0,70,0.00,,,0.00,WeatherCatV1.02B3,2013-08-13 14:25:00,
2013-08-13 10:30:00,64.6,55.0,29.53,ENE,70,3.0,4.0,71,0.00,,,0.00,WeatherCatV1.02B3,2013-08-13 14:30:00,
2013-08-13 10:35:00,64.9,54.1,29.54,NE,34,0.0,5.0,68,0.00,,,0.00,WeatherCatV1.02B3,2013-08-13 14:35:00,
2013-08-13 10:40:00,65.1,54.3,29.54,East,89,2.0,5.0,68,0.00,,,0.00,WeatherCatV1.02B3,2013-08-13 14:40:00,
2013-08-13 10:45:00,64.7,53.9,29.55,NNW,347,1.0,7.0,68,0.00,,,0.00,WeatherCatV1.02B3,2013-08-13 14:45:00,
2013-08-13 10:50:00,64.4,52.4,29.55,SSW,197,3.0,8.0,65,0.00,,,0.00,WeatherCatV1.02B3,2013-08-13 14:50:00,
2013-08-13 10:55:00,64.1,51.2,29.55,ENE,70,2.0,4.0,63,0.00,,,0.00,WeatherCatV1.02B3,2013-08-13 14:55:00,
2013-08-13 11:00:00,64.3,51.4,29.55,WNW,301,5.0,11.0,63,0.00,,,0.00,WeatherCatV1.02B3,2013-08-13 15:00:00,
2013-08-13 11:05:00,64.3,51.9,29.55,SE,139,6.0,10.0,64,0.00,,,0.00,WeatherCatV1.02B3,2013-08-13 15:05:00,
2013-08-13 11:10:00,64.3,52.3,29.56,ENE,75,3.0,5.0,65,0.00,,,0.00,WeatherCatV1.02B3,2013-08-13 15:10:00,
2013-08-13 11:15:00,64.4,51.5,29.56,SSW,201,3.0,7.0,63,0.00,,,0.00,WeatherCatV1.02B3,2013-08-13 15:15:00,
2013-08-13 11:20:00,64.6,53.4,29.56,NNW,342,3.0,7.0,67,0.00,,,0.00,WeatherCatV1.02B3,2013-08-13 15:20:00,
2013-08-13 11:25:00,64.7,53.5,29.56,North,357,6.0,7.0,67,0.00,,,0.00,WeatherCatV1.02B3,2013-08-13 15:25:00,
2013-08-13 11:30:00,64.6,52.1,29.56,ENE,75,3.0,7.0,64,0.00,,,0.00,WeatherCatV1.02B3,2013-08-13 15:30:00,
2013-08-13 11:35:00,64.6,53.4,29.56,NW,326,4.0,6.0,67,0.00,,,0.00,WeatherCatV1.02B3,2013-08-13 15:35:00,
2013-08-13 11:40:00,64.3,52.7,29.56,NE,39,8.0,8.0,66,0.00,,,0.00,WeatherCatV1.02B3,2013-08-13 15:40:00,
2013-08-13 11:45:00,64.1,52.5,29.56,East,97,8.0,9.0,66,0.00,,,0.00,WeatherCatV1.02B3,2013-08-13 15:45:00,
2013-08-13 11:50:00,64.7,53.1,29.56,ENE,61,2.0,6.0,66,0.00,,,0.00,WeatherCatV1.02B3,2013-08-13 15:50:00,
2013-08-13 11:55:00,64.9,53.3,29.57,East,81,6.0,8.0,66,0.00,,,0.00,WeatherCatV1.02B3,2013-08-13 15:55:00,
2013-08-13 12:00:00,64.8,52.8,29.57,ENE,68,4.0,11.0,65,0.00,,,0.00,WeatherCatV1.02B3,2013-08-13 16:00:00,
2013-08-13 12:05:00,64.8,54.0,29.57,ENE,72,6.0,6.0,68,0.00,,,0.00,WeatherCatV1.02B3,2013-08-13 16:05:00,
2013-08-13 12:10:00,65.7,55.2,29.57,ENE,72,10.0,10.0,69,0.00,,,0.00,WeatherCatV1.02B3,2013-08-13 16:10:00,
2013-08-13 12:15:00,65.6,53.9,29.57,North,359,11.0,11.0,66,0.00,,,0.00,WeatherCatV1.02B3,2013-08-13 16:15:00,
2013-08-13 12:20:00,65.3,54.5,29.58,SW,235,2.0,5.0,68,0.00,,,0.00,WeatherCatV1.02B3,2013-08-13 16:20:00,
2013-08-13 12:25:00,65.4,54.1,29.57,NE,51,1.0,6.0,67,0.00,,,0.00,WeatherCatV1.02B3,2013-08-13 16:25:00,
2013-08-13 12:30:00,65.8,54.9,29.58,NNE,19,5.0,7.0,68,0.00,,,0.00,WeatherCatV1.02B3,2013-08-13 16:30:00,
2013-08-13 12:35:00,66.1,54.4,29.58,East,81,2.0,7.0,66,0.00,,,0.00,WeatherCatV1.02B3,2013-08-13 16:35:00,
2013-08-13 12:40:00,66.8,55.9,29.58,ENE,75,2.0,3.0,68,0.00,,,0.00,WeatherCatV1.02B3,2013-08-13 16:40:00,
2013-08-13 12:45:00,66.2,53.2,29.58,ESE,110,1.0,9.0,63,0.00,,,0.00,WeatherCatV1.02B3,2013-08-13 16:45:00,
2013-08-13 12:50:00,66.2,54.5,29.58,WNW,288,2.0,12.0,66,0.00,,,0.00,WeatherCatV1.02B3,2013-08-13 16:50:00,
2013-08-13 12:55:00,66.0,52.6,29.58,NE,41,3.0,12.0,62,0.00,,,0.00,WeatherCatV1.02B3,2013-08-13 16:55:00,
2013-08-13 13:00:00,65.8,54.1,29.58,NNE,25,2.0,6.0,66,0.00,,,0.00,WeatherCatV1.02B3,2013-08-13 17:00:00,
2013-08-13 13:05:00,65.6,53.5,29.58,East,82,4.0,5.0,65,0.00,,,0.00,WeatherCatV1.02B3,2013-08-13 17:05:00,
2013-08-13 13:12:00,66.0,53.9,29.58,East,94,0.0,2.0,65,0.00,,,0.00,WeatherCatV1.02B3,2013-08-13 17:12:00,
2013-08-13 13:17:00,66.4,53.4,29.58,NNE,26,5.0,10.0,63,0.00,,,0.00,WeatherCatV1.02B3,2013-08-13 17:17:00,
2013-08-13 13:22:00,66.3,54.6,29.58,NE,49,2.0,8.0,66,0.00,,,0.00,WeatherCatV1.02B3,2013-08-13 17:22:00,
2013-08-13 13:27:00,66.0,53.0,29.58,North,5,3.0,8.0,63,0.00,,,0.00,WeatherCatV1.02B3,2013-08-13 17:27:00,
2013-08-13 13:32:00,65.8,52.8,29.58,ENE,63,1.0,11.0,63,0.00,,,0.00,WeatherCatV1.02B3,2013-08-13 17:32:00,
2013-08-13 13:37:00,66.0,54.7,29.58,SE,146,1.0,7.0,67,0.00,,,0.00,WeatherCatV1.02B3,2013-08-13 17:37:00,
2013-08-13 13:42:00,66.7,54.1,29.58,North,8,3.0,7.0,64,0.00,,,0.00,WeatherCatV1.02B3,2013-08-13 17:42:00,
2013-08-13 13:47:00,67.1,54.5,29.58,South,187,2.0,5.0,64,0.00,,,0.00,WeatherCatV1.02B3,2013-08-13 17:47:00,
2013-08-13 13:52:00,67.5,54.9,29.59,West,271,2.0,5.0,64,0.00,,,0.00,WeatherCatV1.02B3,2013-08-13 17:52:00,
2013-08-13 13:57:00,67.1,54.1,29.59,SE,134,3.0,9.0,63,0.00,,,0.00,WeatherCatV1.02B3,2013-08-13 17:57:00,
2013-08-13 14:02:00,67.3,55.1,29.58,SSE,160,1.0,5.0,65,0.00,,,0.00,WeatherCatV1.02B3,2013-08-13 18:02:00,
2013-08-13 14:07:00,68.4,56.2,29.58,NNE,15,1.0,5.0,65,0.00,,,0.00,WeatherCatV1.02B3,2013-08-13 18:07:00,
2013-08-13 14:12:00,68.3,54.8,29.58,ESE,106,1.0,5.0,62,0.00,,,0.00,WeatherCatV1.02B3,2013-08-13 18:12:00,
2013-08-13 14:17:00,67.5,54.5,29.58,West,278,2.0,4.0,63,0.00,,,0.00,WeatherCatV1.02B3,2013-08-13 18:17:00,
2013-08-13 14:22:00,68.0,54.5,29.59,West,260,6.0,7.0,62,0.00,,,0.00,WeatherCatV1.02B3,2013-08-13 18:22:00,
2013-08-13 14:27:00,68.0,54.5,29.59,ESE,118,3.0,7.0,62,0.00,,,0.00,WeatherCatV1.02B3,2013-08-13 18:27:00,
2013-08-13 14:32:00,67.3,54.3,29.59,SE,134,0.0,8.0,63,0.00,,,0.00,WeatherCatV1.02B3,2013-08-13 18:32:00,
2013-08-13 14:37:00,67.9,55.3,29.59,NW,306,0.0,3.0,64,0.00,,,0.00,WeatherCatV1.02B3,2013-08-13 18:37:00,
2013-08-13 14:42:00,67.4,54.4,29.59,ENE,75,2.0,10.0,63,0.00,,,0.00,WeatherCatV1.02B3,2013-08-13 18:42:00,
2013-08-13 14:47:00,67.5,55.3,29.59,ESE,121,1.0,3.0,65,0.00,,,0.00,WeatherCatV1.02B3,2013-08-13 18:47:00,
2013-08-13 14:52:00,67.8,53.8,29.59,NE,44,1.0,9.0,61,0.00,,,0.00,WeatherCatV1.02B3,2013-08-13 18:52:00,
2013-08-13 14:57:00,68.1,54.6,29.58,NW,307,3.0,4.0,62,0.00,,,0.00,WeatherCatV1.02B3,2013-08-13 18:57:00,
2013-08-13 15:02:00,68.6,54.6,29.59,ESE,111,2.0,5.0,61,0.00,,,0.00,WeatherCatV1.02B3,2013-08-13 19:02:00,
2013-08-13 15:07:00,68.5,55.4,29.59,NNE,27,1.0,3.0,63,0.00,,,0.00,WeatherCatV1.02B3,2013-08-13 19:07:00,
2013-08-13 15:12:00,68.1,54.6,29.59,NE,47,3.0,7.0,62,0.00,,,0.00,WeatherCatV1.02B3,2013-08-13 19:12:00,
2013-08-13 15:17:00,67.7,54.6,29.58,West,278,7.0,7.0,63,0.00,,,0.00,WeatherCatV1.02B3,2013-08-13 19:17:00,
2013-08-13 15:22:00,68.2,54.7,29.58,SSE,156,1.0,3.0,62,0.00,,,0.00,WeatherCatV1.02B3,2013-08-13 19:22:00,
2013-08-13 15:27:00,68.0,53.6,29.59,SW,226,3.0,5.0,60,0.00,,,0.00,WeatherCatV1.02B3,2013-08-13 19:27:00,
2013-08-13 15:32:00,68.0,54.0,29.58,NE,34,4.0,9.0,61,0.00,,,0.00,WeatherCatV1.02B3,2013-08-13 19:32:00,
2013-08-13 15:37:00,67.6,54.1,29.59,SW,218,2.0,7.0,62,0.00,,,0.00,WeatherCatV1.02B3,2013-08-13 19:37:00,
2013-08-13 15:42:00,66.9,53.0,29.59,NE,49,5.0,9.0,61,0.00,,,0.00,WeatherCatV1.02B3,2013-08-13 19:42:00,
2013-08-13 15:47:00,67.3,53.8,29.59,WSW,248,2.0,6.0,62,0.00,,,0.00,WeatherCatV1.02B3,2013-08-13 19:47:00,
2013-08-13 15:52:00,67.5,52.2,29.59,West,281,2.0,6.0,58,0.00,,,0.00,WeatherCatV1.02B3,2013-08-13 19:52:00,
2013-08-13 15:57:00,67.7,53.8,29.59,NNW,330,4.0,9.0,61,0.00,,,0.00,WeatherCatV1.02B3,2013-08-13 19:57:00,
2013-08-13 16:02:00,68.1,53.7,29.58,South,188,1.0,5.0,60,0.00,,,0.00,WeatherCatV1.02B3,2013-08-13 20:02:00,
2013-08-13 16:07:00,68.2,54.7,29.59,NNE,29,4.0,5.0,62,0.00,,,0.00,WeatherCatV1.02B3,2013-08-13 20:07:00,
2013-08-13 16:12:00,68.1,55.0,29.59,NE,34,3.0,7.0,63,0.00,,,0.00,WeatherCatV1.02B3,2013-08-13 20:12:00,
2013-08-13 16:17:00,67.6,54.1,29.59,SSW,193,1.0,4.0,62,0.00,,,0.00,WeatherCatV1.02B3,2013-08-13 20:17:00,
2013-08-13 16:22:00,66.6,54.0,29.59,West,271,4.0,5.0,64,0.00,,,0.00,WeatherCatV1.02B3,2013-08-13 20:22:00,
2013-08-13 16:27:00,66.5,55.2,29.59,West,262,0.0,3.0,67,0.00,,,0.00,WeatherCatV1.02B3,2013-08-13 20:27:00,
2013-08-13 16:32:00,66.6,54.0,29.59,SW,233,3.0,3.0,64,0.00,,,0.00,WeatherCatV1.02B3,2013-08-13 20:32:00,
2013-08-13 16:37:00,66.4,53.8,29.59,SSW,193,1.0,9.0,64,0.00,,,0.00,WeatherCatV1.02B3,2013-08-13 20:37:00,
2013-08-13 16:42:00,66.5,53.5,29.59,NNE,22,3.0,7.0,63,0.00,,,0.00,WeatherCatV1.02B3,2013-08-13 20:42:00,
2013-08-13 16:47:00,65.6,53.5,29.59,NW,323,6.0,9.0,65,0.00,,,0.00,WeatherCatV1.02B3,2013-08-13 20:47:00,
2013-08-13 16:52:00,64.9,53.3,29.59,NE,47,0.0,6.0,66,0.00,,,0.00,WeatherCatV1.02B3,2013-08-13 20:52:00,
2013-08-13 16:57:00,65.8,55.3,29.59,SW,218,3.0,6.0,69,0.00,,,0.00,WeatherCatV1.02B3,2013-08-13 20:57:00,
2013-08-13 17:02:00,66.3,53.7,29.59,NE,34,1.0,14.0,64,0.00,,,0.00,WeatherCatV1.02B3,2013-08-13 21:02:00,
2013-08-13 17:07:00,66.6,54.5,29.59,NW,314,2.0,8.0,65,0.00,,,0.00,WeatherCatV1.02B3,2013-08-13 21:07:00,
2013-08-13 17:12:00,66.6,54.5,29.59,NE,56,2.0,6.0,65,0.00,,,0.00,WeatherCatV1.02B3,2013-08-13 21:12:00,
2013-08-13 17:17:00,66.3,54.2,29.60,East,79,4.0,8.0,65,0.00,,,0.00,WeatherCatV1.02B3,2013-08-13 21:17:00,
2013-08-13 17:22:00,66.7,54.6,29.60,NNW,328,7.0,7.0,65,0.00,,,0.00,WeatherCatV1.02B3,2013-08-13 21:22:00,
2013-08-13 17:27:00,66.8,54.6,29.59,NE,46,1.0,5.0,65,0.00,,,0.00,WeatherCatV1.02B3,2013-08-13 21:27:00,
2013-08-13 17:32:00,67.0,53.5,29.59,ESE,110,2.0,11.0,62,0.00,,,0.00,WeatherCatV1.02B3,2013-08-13 21:32:00,
2013-08-13 17:37:00,66.9,53.0,29.59,ENE,77,3.0,3.0,61,0.00,,,0.00,WeatherCatV1.02B3,2013-08-13 21:37:00,
2013-08-13 17:42:00,67.0,53.5,29.59,WSW,258,3.0,6.0,62,0.00,,,0.00,WeatherCatV1.02B3,2013-08-13 21:42:00,
2013-08-13 17:47:00,66.7,53.3,29.59,NNE,19,2.0,7.0,62,0.00,,,0.00,WeatherCatV1.02B3,2013-08-13 21:47:00,
2013-08-13 17:52:00,66.6,52.7,29.59,SSW,201,1.0,6.0,61,0.00,,,0.00,WeatherCatV1.02B3,2013-08-13 21:52:00,
2013-08-13 17:53:00,66.6,52.7,29.59,ESE,115,0.0,6.0,61,0.00,,,0.00,WeatherCatV1.02B3,2013-08-13 21:53:00,
2013-08-13 17:58:00,67.0,54.8,29.59,WNW,300,3.0,6.0,65,0.00,,,0.00,WeatherCatV1.02B3,2013-08-13 21:58:00,
2013-08-13 18:03:00,67.0,52.2,29.59,NNE,32,2.0,5.0,59,0.00,,,0.00,WeatherCatV1.02B3,2013-08-13 22:03:00,
2013-08-13 18:08:00,67.1,52.3,29.59,ESE,111,1.0,6.0,59,0.00,,,0.00,WeatherCatV1.02B3,2013-08-13 22:08:00,
2013-08-13 18:13:00,67.2,52.8,29.59,ESE,103,1.0,4.0,60,0.00,,,0.00,WeatherCatV1.02B3,2013-08-13 22:13:00,
2013-08-13 18:18:00,67.2,52.4,29.59,ENE,77,1.0,7.0,59,0.00,,,0.00,WeatherCatV1.02B3,2013-08-13 22:18:00,
2013-08-13 18:23:00,66.7,51.9,29.59,WNW,285,0.0,5.0,59,0.00,,,0.00,WeatherCatV1.02B3,2013-08-13 22:23:00,
2013-08-13 18:28:00,66.7,52.4,29.59,SW,225,2.0,3.0,60,0.00,,,0.00,WeatherCatV1.02B3,2013-08-13 22:28:00,
2013-08-13 18:33:00,66.3,52.9,29.59,ENE,60,3.0,6.0,62,0.00,,,0.00,WeatherCatV1.02B3,2013-08-13 22:33:00,
2013-08-13 18:38:00,65.9,52.9,29.59,ESE,107,3.0,7.0,63,0.00,,,0.00,WeatherCatV1.02B3,2013-08-13 22:38:00,
2013-08-13 18:43:00,65.7,51.9,29.58,ENE,63,0.0,9.0,61,0.00,,,0.00,WeatherCatV1.02B3,2013-08-13 22:43:00,
2013-08-13 18:45:00,65.7,52.3,29.59,NE,55,2.0,3.0,62,0.00,,,0.00,WeatherCatV1.02B3,2013-08-13 22:45:00,
2013-08-13 18:48:00,65.4,52.0,29.58,NE,42,4.0,6.0,62,0.00,,,0.00,WeatherCatV1.02B3,2013-08-13 22:48:00,
2013-08-13 18:50:00,65.4,52.5,29.58,NE,55,2.0,5.0,63,0.00,,,0.00,WeatherCatV1.02B3,2013-08-13 22:50:00,
2013-08-13 18:55:00,66.6,52.7,29.59,ENE,68,2.0,7.0,61,0.00,,,0.00,WeatherCatV1.02B3,2013-08-13 22:55:00,
2013-08-13 19:00:00,66.6,52.7,29.59,ENE,68,2.0,7.0,61,0.00,,,0.00,WeatherCatV1.02B3,2013-08-13 23:00:00,
2013-08-13 19:05:00,64.8,52.3,29.58,ENE,68,2.0,9.0,64,0.00,,,0.00,WeatherCatV1.02B3,2013-08-13 23:05:00,
2013-08-13 19:10:00,64.8,52.3,29.58,ENE,68,2.0,9.0,64,0.00,,,0.00,WeatherCatV1.02B3,2013-08-13 23:10:00,
2013-08-13 19:15:00,64.8,52.3,29.58,ENE,68,2.0,9.0,64,0.00,,,0.00,WeatherCatV1.02B3,2013-08-13 23:15:00,
2013-08-13 19:20:00,64.8,52.3,29.58,ENE,68,2.0,9.0,64,0.00,,,0.00,WeatherCatV1.02B3,2013-08-13 23:20:00,
2013-08-13 19:25:00,64.8,52.3,29.58,ENE,68,2.0,9.0,64,0.00,,,0.00,WeatherCatV1.02B3,2013-08-13 23:25:00,
2013-08-13 19:30:00,64.0,52.0,29.58,ENE,68,1.0,9.0,65,0.00,,,0.00,WeatherCatV1.02B3,2013-08-13 23:30:00,
2013-08-13 19:35:00,64.0,52.0,29.58,ENE,68,1.0,9.0,65,0.00,,,0.00,WeatherCatV1.02B3,2013-08-13 23:35:00,
2013-08-13 19:40:00,64.0,52.0,29.58,ENE,68,1.0,9.0,65,0.00,,,0.00,WeatherCatV1.02B3,2013-08-13 23:40:00,
2013-08-13 19:45:00,64.0,52.0,29.58,ENE,68,1.0,9.0,65,0.00,,,0.00,WeatherCatV1.02B3,2013-08-13 23:45:00,
2013-08-13 19:50:00,64.0,52.0,29.58,ENE,68,1.0,9.0,65,0.00,,,0.00,WeatherCatV1.02B3,2013-08-13 23:50:00,
2013-08-13 19:55:00,64.0,52.0,29.58,ENE,68,1.0,9.0,65,0.00,,,0.00,WeatherCatV1.02B3,2013-08-13 23:55:00,
2013-08-13 20:00:00,64.0,52.0,29.58,ENE,68,1.0,9.0,65,0.00,,,0.00,WeatherCatV1.02B3,2013-08-14 00:00:00,
2013-08-13 20:05:00,63.5,52.3,29.58,NNE,22,1.0,10.0,67,0.00,,,0.00,WeatherCatV1.02B3,2013-08-14 00:05:00,
2013-08-13 20:10:00,63.5,52.3,29.58,NNE,22,1.0,10.0,67,0.00,,,0.00,WeatherCatV1.02B3,2013-08-14 00:10:00,
2013-08-13 20:15:00,63.5,52.3,29.58,NNE,22,1.0,10.0,67,0.00,,,0.00,WeatherCatV1.02B3,2013-08-14 00:15:00,
2013-08-13 20:20:00,63.5,52.3,29.58,NNE,22,1.0,10.0,67,0.00,,,0.00,WeatherCatV1.02B3,2013-08-14 00:20:00,
2013-08-13 20:25:00,63.5,52.3,29.58,NNE,22,1.0,10.0,67,0.00,,,0.00,WeatherCatV1.02B3,2013-08-14 00:25:00,
2013-08-13 20:30:00,62.0,52.5,29.58,ENE,68,1.0,6.0,71,0.00,,,0.00,WeatherCatV1.02B3,2013-08-14 00:30:00,
2013-08-13 20:35:00,62.0,52.5,29.58,ENE,68,1.0,6.0,71,0.00,,,0.00,WeatherCatV1.02B3,2013-08-14 00:35:00,
2013-08-13 20:40:00,62.0,52.5,29.58,ENE,68,1.0,6.0,71,0.00,,,0.00,WeatherCatV1.02B3,2013-08-14 00:40:00,
2013-08-13 20:45:00,62.0,52.5,29.58,ENE,68,1.0,6.0,71,0.00,,,0.00,WeatherCatV1.02B3,2013-08-14 00:45:00,
2013-08-13 20:50:00,62.0,52.5,29.58,ENE,68,1.0,6.0,71,0.00,,,0.00,WeatherCatV1.02B3,2013-08-14 00:50:00,
2013-08-13 20:55:00,62.0,52.5,29.58,ENE,68,1.0,6.0,71,0.00,,,0.00,WeatherCatV1.02B3,2013-08-14 00:55:00,
2013-08-13 21:00:00,59.8,52.9,29.58,NE,45,0.0,3.0,78,0.00,,,0.00,WeatherCatV1.02B3,2013-08-14 01:00:00,
2013-08-13 21:05:00,59.8,52.9,29.58,NE,45,0.0,3.0,78,0.00,,,0.00,WeatherCatV1.02B3,2013-08-14 01:05:00,
2013-08-13 21:10:00,59.8,52.9,29.58,NE,45,0.0,3.0,78,0.00,,,0.00,WeatherCatV1.02B3,2013-08-14 01:10:00,
2013-08-13 21:15:00,59.8,52.9,29.58,NE,45,0.0,3.0,78,0.00,,,0.00,WeatherCatV1.02B3,2013-08-14 01:15:00,
2013-08-13 21:20:00,59.8,52.9,29.58,NE,45,0.0,3.0,78,0.00,,,0.00,WeatherCatV1.02B3,2013-08-14 01:20:00,
2013-08-13 21:25:00,59.8,52.9,29.58,NE,45,0.0,3.0,78,0.00,,,0.00,WeatherCatV1.02B3,2013-08-14 01:25:00,
2013-08-13 21:30:00,59.8,52.9,29.58,NE,45,0.0,3.0,78,0.00,,,0.00,WeatherCatV1.02B3,2013-08-14 01:30:00,
2013-08-13 21:35:00,58.2,53.1,29.59,ESE,112,0.0,3.0,83,0.00,,,0.00,WeatherCatV1.02B3,2013-08-14 01:35:00,
2013-08-13 21:40:00,58.2,53.1,29.59,ESE,112,0.0,3.0,83,0.00,,,0.00,WeatherCatV1.02B3,2013-08-14 01:40:00,
2013-08-13 21:45:00,58.2,53.1,29.59,ESE,112,0.0,3.0,83,0.00,,,0.00,WeatherCatV1.02B3,2013-08-14 01:45:00,
2013-08-13 21:50:00,58.2,53.1,29.59,ESE,112,0.0,3.0,83,0.00,,,0.00,WeatherCatV1.02B3,2013-08-14 01:50:00,
2013-08-13 21:55:00,58.2,53.1,29.59,ESE,112,0.0,3.0,83,0.00,,,0.00,WeatherCatV1.02B3,2013-08-14 01:55:00,
2013-08-13 22:00:00,58.2,53.1,29.59,ESE,112,0.0,3.0,83,0.00,,,0.00,WeatherCatV1.02B3,2013-08-14 02:00:00,
2013-08-13 22:05:00,58.5,52.7,29.60,ENE,68,0.0,3.0,81,0.00,,,0.00,WeatherCatV1.02B3,2013-08-14 02:05:00,
2013-08-13 22:10:00,58.5,52.7,29.60,ENE,68,0.0,3.0,81,0.00,,,0.00,WeatherCatV1.02B3,2013-08-14 02:10:00,
2013-08-13 22:15:00,58.5,52.7,29.60,ENE,68,0.0,3.0,81,0.00,,,0.00,WeatherCatV1.02B3,2013-08-14 02:15:00,
2013-08-13 22:20:00,58.5,52.7,29.60,ENE,68,0.0,3.0,81,0.00,,,0.00,WeatherCatV1.02B3,2013-08-14 02:20:00,
2013-08-13 22:25:00,58.5,52.7,29.60,ENE,68,0.0,3.0,81,0.00,,,0.00,WeatherCatV1.02B3,2013-08-14 02:25:00,
2013-08-13 22:30:00,58.8,52.6,29.60,NE,45,0.0,4.0,80,0.00,,,0.00,WeatherCatV1.02B3,2013-08-14 02:30:00,
2013-08-13 22:35:00,58.8,52.6,29.60,NE,45,0.0,4.0,80,0.00,,,0.00,WeatherCatV1.02B3,2013-08-14 02:35:00,
2013-08-13 22:40:00,58.8,52.6,29.60,NE,45,0.0,4.0,80,0.00,,,0.00,WeatherCatV1.02B3,2013-08-14 02:40:00,
2013-08-13 22:45:00,58.8,52.6,29.60,NE,45,0.0,4.0,80,0.00,,,0.00,WeatherCatV1.02B3,2013-08-14 02:45:00,
2013-08-13 22:50:00,58.8,52.6,29.60,NE,45,0.0,4.0,80,0.00,,,0.00,WeatherCatV1.02B3,2013-08-14 02:50:00,
2013-08-13 22:55:00,58.8,52.6,29.60,NE,45,0.0,4.0,80,0.00,,,0.00,WeatherCatV1.02B3,2013-08-14 02:55:00,
2013-08-13 23:00:00,58.8,52.6,29.60,NE,45,0.0,4.0,80,0.00,,,0.00,WeatherCatV1.02B3,2013-08-14 03:00:00,
2013-08-13 23:05:00,58.0,51.9,29.61,East,90,0.0,3.0,80,0.00,,,0.00,WeatherCatV1.02B3,2013-08-14 03:05:00,
2013-08-13 23:10:00,58.0,51.9,29.61,East,90,0.0,3.0,80,0.00,,,0.00,WeatherCatV1.02B3,2013-08-14 03:10:00,
2013-08-13 23:15:00,58.0,51.9,29.61,East,90,0.0,3.0,80,0.00,,,0.00,WeatherCatV1.02B3,2013-08-14 03:15:00,
2013-08-13 23:20:00,58.0,51.9,29.61,East,90,0.0,3.0,80,0.00,,,0.00,WeatherCatV1.02B3,2013-08-14 03:20:00,
2013-08-13 23:25:00,58.0,51.9,29.61,East,90,0.0,3.0,80,0.00,,,0.00,WeatherCatV1.02B3,2013-08-14 03:25:00,
2013-08-13 23:30:00,58.0,51.9,29.61,East,90,0.0,3.0,80,0.00,,,0.00,WeatherCatV1.02B3,2013-08-14 03:30:00,
2013-08-13 23:35:00,58.0,52.5,29.62,NE,45,0.0,3.0,82,0.00,,,0.00,WeatherCatV1.02B3,2013-08-14 03:35:00,
2013-08-13 23:40:00,58.0,52.5,29.62,NE,45,0.0,3.0,82,0.00,,,0.00,WeatherCatV1.02B3,2013-08-14 03:40:00,
2013-08-13 23:45:00,58.0,52.5,29.62,NE,45,0.0,3.0,82,0.00,,,0.00,WeatherCatV1.02B3,2013-08-14 03:45:00,
2013-08-13 23:50:00,58.0,52.5,29.62,NE,45,0.0,3.0,82,0.00,,,0.00,WeatherCatV1.02B3,2013-08-14 03:50:00,
2013-08-13 23:55:00,58.0,52.5,29.62,NE,45,0.0,3.0,82,0.00,,,0.00,WeatherCatV1.02B3,2013-08-14 03:55:00,